createdAt,value
2022-11-15T00:00:57.468Z,8.85
2022-11-15T00:03:27.288Z,14.60
2022-11-15T00:05:54.368Z,16.77
2022-11-15T00:08:21.317Z,12.80
2022-11-15T00:10:58.984Z,13.00
2022-11-15T00:13:25.968Z,12.57
2022-11-15T00:15:52.522Z,12.32
2022-11-15T00:18:19.956Z,13.65
2022-11-15T00:20:46.553Z,13.88
2022-11-15T00:23:13.228Z,13.20
2022-11-15T00:25:39.801Z,12.73
2022-11-15T00:28:06.402Z,10.30
2022-11-15T00:30:33.181Z,14.43
2022-11-15T00:33:07.316Z,13.43
2022-11-15T00:35:35.125Z,11.55
2022-11-15T00:38:02.722Z,11.82
2022-11-15T00:40:29.900Z,12.98
2022-11-15T00:42:56.823Z,12.32
2022-11-15T00:45:23.780Z,8.93
2022-11-15T00:47:50.422Z,11.70
2022-11-15T00:50:17.792Z,10.45
2022-11-15T00:52:44.916Z,8.93
2022-11-15T00:55:18.458Z,4.65
2022-11-15T00:57:45.315Z,9.55
2022-11-15T01:00:12.740Z,8.98
2022-11-15T01:02:39.401Z,10.63
2022-11-15T01:05:06.772Z,9.80
2022-11-15T01:07:33.475Z,8.90
2022-11-15T01:10:00.119Z,9.35
2022-11-15T01:12:26.669Z,9.60
2022-11-15T01:14:53.255Z,10.07
2022-11-15T01:17:19.837Z,6.10
2022-11-15T01:19:46.461Z,5.10
2022-11-15T01:22:13.196Z,7.72
2022-11-15T01:24:39.767Z,7.32
2022-11-15T01:27:06.646Z,7.53
2022-11-15T01:29:33.296Z,6.88
2022-11-15T01:31:59.905Z,6.68
2022-11-15T01:34:26.491Z,6.57
2022-11-15T01:36:53.108Z,6.47
2022-11-15T01:39:19.635Z,6.75
2022-11-15T01:41:46.231Z,6.68
2022-11-15T01:44:34.631Z,4.22
2022-11-15T01:47:04.215Z,7.15
2022-11-15T01:49:34.751Z,4.72
2022-11-15T01:52:04.724Z,5.85
2022-11-15T01:54:31.881Z,5.38
2022-11-15T01:57:11.505Z,4.00
2022-11-15T01:59:40.399Z,4.55
2022-11-15T02:02:07.288Z,3.13
2022-11-15T02:04:36.927Z,4.28
2022-11-15T02:07:06.504Z,3.45
2022-11-15T02:09:33.129Z,4.30
2022-11-15T02:12:00.831Z,2.78
2022-11-15T02:14:29.609Z,4.32
2022-11-15T02:17:05.195Z,4.40
2022-11-15T02:19:34.687Z,3.35
2022-11-15T02:22:24.099Z,3.35
2022-11-15T02:25:08.779Z,5.10
2022-11-15T02:28:04.329Z,5.22
2022-11-15T02:30:48.715Z,5.05
2022-11-15T02:33:34.217Z,3.45
2022-11-15T02:36:02.200Z,3.90
2022-11-15T02:38:43.717Z,3.63
2022-11-15T02:41:13.110Z,4.53
2022-11-15T02:43:58.098Z,4.60
2022-11-15T02:49:33.597Z,7.22
2022-11-15T02:52:00.264Z,4.45
2022-11-15T02:54:30.822Z,2.53
2022-11-15T02:57:05.310Z,2.72
2022-11-15T02:59:54.371Z,3.97
2022-11-15T03:02:35.777Z,3.67
2022-11-15T03:05:26.444Z,3.00
2022-11-15T03:08:18.694Z,3.70
2022-11-15T03:11:09.080Z,2.97
2022-11-15T03:13:38.684Z,2.60
2022-11-15T03:16:15.838Z,2.63
2022-11-15T03:18:46.633Z,2.42
2022-11-15T03:21:15.379Z,2.13
2022-11-15T03:23:44.114Z,3.45
2022-11-15T03:26:13.711Z,2.65
2022-11-15T03:28:43.266Z,1.58
2022-11-15T03:31:30.682Z,2.72
2022-11-15T03:33:58.949Z,3.03
2022-11-15T03:36:26.639Z,3.58
2022-11-15T03:39:01.499Z,3.67
2022-11-15T03:41:57.506Z,2.55
2022-11-15T03:45:02.542Z,3.53
2022-11-15T03:47:37.568Z,2.60
2022-11-15T03:50:09.640Z,3.83
2022-11-15T03:52:36.824Z,2.38
2022-11-15T03:55:06.117Z,1.85
2022-11-15T03:57:32.782Z,2.05
2022-11-15T03:59:59.314Z,3.53
2022-11-15T04:02:25.941Z,4.15
2022-11-15T04:04:52.528Z,3.85
2022-11-15T04:07:19.262Z,4.13
2022-11-15T04:10:04.326Z,4.13
2022-11-15T04:12:35.427Z,3.17
2022-11-15T04:15:09.845Z,1.65
2022-11-15T04:17:41.017Z,2.28
2022-11-15T04:20:48.067Z,3.47
2022-11-15T04:23:43.550Z,2.10
2022-11-15T04:26:17.985Z,2.88
2022-11-15T04:29:03.462Z,2.80
2022-11-15T04:31:30.015Z,3.67
2022-11-15T04:33:56.801Z,3.42
2022-11-15T04:36:42.667Z,4.40
2022-11-15T04:39:09.575Z,3.28
2022-11-15T04:41:36.444Z,1.80
2022-11-15T04:44:03.232Z,3.65
2022-11-15T04:46:29.933Z,3.67
2022-11-15T04:48:59.015Z,3.22
2022-11-15T04:51:26.524Z,2.85
2022-11-15T04:53:53.465Z,3.60
2022-11-15T04:56:20.213Z,3.35
2022-11-15T04:58:49.290Z,3.95
2022-11-15T05:01:16.245Z,3.85
2022-11-15T05:04:04.560Z,3.97
2022-11-15T05:06:31.505Z,4.28
2022-11-15T05:08:58.580Z,3.00
2022-11-15T05:11:25.383Z,5.13
2022-11-15T05:13:51.991Z,4.00
2022-11-15T05:16:18.629Z,3.85
2022-11-15T05:18:45.585Z,2.25
2022-11-15T05:21:15.269Z,3.28
2022-11-15T05:23:42.677Z,3.38
2022-11-15T05:26:10.024Z,3.95
2022-11-15T05:28:37.573Z,3.85
2022-11-15T05:31:12.845Z,4.78
2022-11-15T05:33:40.852Z,4.65
2022-11-15T05:36:28.540Z,3.45
2022-11-15T05:38:55.594Z,4.22
2022-11-15T05:41:30.774Z,5.22
2022-11-15T05:43:57.996Z,4.03
2022-11-15T05:46:24.757Z,3.95
2022-11-15T05:48:52.511Z,3.55
2022-11-15T05:51:21.486Z,4.38
2022-11-15T05:53:48.655Z,5.63
2022-11-15T05:56:16.041Z,4.70
2022-11-15T05:58:43.590Z,4.18
2022-11-15T06:01:10.360Z,4.18
2022-11-15T06:03:36.928Z,2.47
2022-11-15T06:06:03.571Z,5.40
2022-11-15T06:08:30.158Z,4.05
2022-11-15T06:10:56.721Z,4.05
2022-11-15T06:13:23.323Z,3.67
2022-11-15T06:15:50.003Z,4.50
2022-11-15T06:18:16.606Z,6.40
2022-11-15T06:20:43.269Z,4.50
2022-11-15T06:23:09.869Z,3.75
2022-11-15T06:25:36.454Z,6.00
2022-11-15T06:28:03.136Z,4.05
2022-11-15T06:30:29.697Z,3.72
2022-11-15T06:33:01.650Z,7.03
2022-11-15T06:35:28.656Z,3.95
2022-11-15T06:37:55.355Z,5.22
2022-11-15T06:40:22.032Z,3.70
2022-11-15T06:42:48.671Z,4.25
2022-11-15T06:45:15.600Z,4.10
2022-11-15T06:47:47.635Z,3.60
2022-11-15T06:50:14.442Z,4.15
2022-11-15T06:52:41.060Z,3.97
2022-11-15T06:55:09.067Z,2.55
2022-11-15T06:57:36.133Z,3.70
2022-11-15T07:00:05.295Z,4.68
2022-11-15T07:02:32.178Z,4.68
2022-11-15T07:04:58.753Z,5.13
2022-11-15T07:07:25.402Z,4.13
2022-11-15T07:09:51.988Z,3.58
2022-11-15T07:12:18.571Z,4.07
2022-11-15T07:14:45.132Z,3.22
2022-11-15T07:17:11.738Z,4.65
2022-11-15T07:19:38.274Z,3.47
2022-11-15T07:22:04.885Z,5.15
2022-11-15T07:24:31.425Z,6.57
2022-11-15T07:26:58.033Z,6.00
2022-11-15T07:29:24.880Z,3.97
2022-11-15T07:31:51.678Z,2.72
2022-11-15T07:34:18.291Z,4.10
2022-11-15T07:36:44.921Z,6.25
2022-11-15T07:39:13.144Z,4.43
2022-11-15T07:41:39.887Z,3.55
2022-11-15T07:44:06.530Z,6.85
2022-11-15T07:46:33.139Z,5.78
2022-11-15T07:48:59.711Z,5.22
2022-11-15T07:51:26.341Z,8.20
2022-11-15T07:53:52.978Z,7.70
2022-11-15T07:56:19.803Z,5.80
2022-11-15T07:58:47.806Z,5.22
2022-11-15T08:01:14.544Z,4.70
2022-11-15T08:03:41.226Z,7.40
2022-11-15T08:06:07.915Z,8.07
2022-11-15T08:08:34.456Z,5.57
2022-11-15T08:11:01.578Z,6.95
2022-11-15T08:13:28.989Z,7.10
2022-11-15T08:16:00.740Z,6.68
2022-11-15T08:18:27.411Z,7.63
2022-11-15T08:20:53.950Z,6.57
2022-11-15T08:23:20.603Z,4.00
2022-11-15T08:25:47.144Z,8.07
2022-11-15T08:28:13.753Z,9.00
2022-11-15T08:30:43.722Z,5.95
2022-11-15T08:33:14.715Z,7.40
2022-11-15T08:35:42.469Z,7.15
2022-11-15T08:38:09.344Z,8.52
2022-11-15T08:40:36.401Z,4.03
2022-11-15T08:43:03.671Z,7.53
2022-11-15T08:45:31.832Z,7.00
2022-11-15T08:47:58.633Z,4.80
2022-11-15T08:50:25.181Z,5.40
2022-11-15T08:52:51.765Z,6.60
2022-11-15T08:55:18.414Z,5.30
2022-11-15T08:57:45.723Z,4.55
2022-11-15T09:00:13.589Z,3.17
2022-11-15T09:02:40.871Z,4.68
2022-11-15T09:05:08.745Z,3.58
2022-11-15T09:07:35.462Z,3.13
2022-11-15T09:10:02.074Z,4.72
2022-11-15T09:12:28.787Z,4.15
2022-11-15T09:14:55.768Z,4.60
2022-11-15T09:17:25.016Z,4.18
2022-11-15T09:19:52.115Z,2.67
2022-11-15T09:22:19.162Z,4.30
2022-11-15T09:24:45.901Z,3.08
2022-11-15T09:27:13.553Z,4.55
2022-11-15T09:29:40.265Z,3.78
2022-11-15T09:32:07.087Z,2.80
2022-11-15T09:34:33.761Z,4.05
2022-11-15T09:37:00.341Z,4.00
2022-11-15T09:39:26.909Z,3.60
2022-11-15T09:42:07.032Z,3.33
2022-11-15T09:44:51.197Z,3.33
2022-11-15T09:47:23.495Z,2.70
2022-11-15T09:49:57.912Z,3.33
2022-11-15T09:52:25.721Z,2.20
2022-11-15T09:54:55.208Z,2.63
2022-11-15T09:57:45.632Z,2.67
2022-11-15T10:03:17.758Z,2.75
2022-11-15T10:05:48.174Z,2.45
2022-11-15T10:08:23.553Z,2.40
2022-11-15T10:11:22.743Z,2.50
2022-11-15T10:13:48.635Z,3.25
2022-11-15T10:16:39.944Z,1.85
2022-11-15T10:22:01.289Z,2.53
2022-11-15T10:24:32.242Z,3.53
2022-11-15T10:26:58.913Z,2.72
2022-11-15T10:29:27.269Z,2.20
2022-11-15T10:31:54.376Z,2.42
2022-11-15T10:34:23.497Z,1.90
2022-11-15T10:37:02.692Z,1.58
2022-11-15T10:39:29.639Z,2.53
2022-11-15T10:41:57.955Z,2.47
2022-11-15T10:44:29.738Z,2.10
2022-11-15T10:46:56.284Z,2.10
2022-11-15T10:49:29.621Z,2.65
2022-11-15T10:52:18.250Z,2.95
2022-11-15T10:54:53.230Z,2.22
2022-11-15T10:57:24.850Z,1.55
2022-11-15T10:59:58.424Z,2.15
2022-11-15T11:02:30.797Z,3.30
2022-11-15T11:07:27.740Z,2.55
2022-11-15T11:10:51.164Z,2.33
2022-11-15T11:13:25.610Z,1.88
2022-11-15T11:16:08.725Z,2.55
2022-11-15T11:18:43.424Z,1.88
2022-11-15T11:21:14.633Z,1.85
2022-11-15T11:23:55.306Z,2.67
2022-11-15T11:26:36.052Z,2.38
2022-11-15T11:29:15.560Z,2.42
2022-11-15T11:32:05.267Z,2.15
2022-11-15T11:34:56.083Z,2.08
2022-11-15T11:37:50.156Z,2.08
2022-11-15T11:40:42.113Z,2.80
2022-11-15T11:43:35.070Z,1.38
2022-11-15T11:46:29.248Z,2.20
2022-11-15T11:49:10.762Z,1.50
2022-11-15T11:52:16.098Z,2.35
2022-11-15T11:55:14.521Z,2.25
2022-11-15T11:57:49.223Z,3.05
2022-11-15T12:00:24.186Z,2.05
2022-11-15T12:03:09.018Z,2.38
2022-11-15T12:05:58.840Z,3.35
2022-11-15T12:08:41.199Z,2.08
2022-11-15T12:11:17.054Z,2.45
2022-11-15T12:13:44.658Z,2.88
2022-11-15T12:16:25.713Z,3.05
2022-11-15T12:18:54.775Z,1.77
2022-11-15T12:21:33.663Z,3.15
2022-11-15T12:24:14.907Z,2.88
2022-11-15T12:26:52.844Z,2.28
2022-11-15T12:29:34.685Z,2.28
2022-11-15T12:32:03.215Z,2.35
2022-11-15T12:34:29.735Z,2.83
2022-11-15T12:36:56.950Z,2.47
2022-11-15T12:40:03.928Z,2.67
2022-11-15T12:42:30.914Z,3.08
2022-11-15T12:45:00.042Z,2.50
2022-11-15T12:47:28.298Z,2.70
2022-11-15T12:49:55.140Z,2.22
2022-11-15T12:52:21.839Z,2.70
2022-11-15T12:55:00.108Z,2.45
2022-11-15T12:57:36.344Z,2.05
2022-11-15T13:00:25.460Z,2.88
2022-11-15T13:03:24.428Z,2.92
2022-11-15T13:05:59.072Z,2.92
2022-11-15T13:08:48.670Z,2.88
2022-11-15T13:11:51.885Z,3.70
2022-11-15T13:14:40.930Z,2.65
2022-11-15T13:17:27.331Z,2.97
2022-11-15T13:20:07.603Z,3.88
2022-11-15T13:22:53.064Z,1.80
2022-11-15T13:25:31.495Z,2.30
2022-11-15T13:28:06.576Z,2.63
2022-11-15T13:30:34.564Z,3.25
2022-11-15T13:33:10.723Z,3.47
2022-11-15T13:35:41.036Z,4.00
2022-11-15T13:38:07.735Z,3.15
2022-11-15T13:40:38.745Z,2.15
2022-11-15T13:43:28.541Z,3.08
2022-11-15T13:46:28.335Z,3.38
2022-11-15T13:48:57.933Z,3.10
2022-11-15T13:51:36.403Z,2.22
2022-11-15T13:54:38.689Z,2.85
2022-11-15T13:57:11.370Z,2.90
2022-11-15T14:00:04.445Z,2.92
2022-11-15T14:02:36.267Z,1.83
2022-11-15T14:05:21.035Z,2.13
2022-11-15T14:07:54.154Z,1.92
2022-11-15T14:10:31.782Z,2.90
2022-11-15T14:12:58.770Z,2.53
2022-11-15T14:15:34.968Z,3.33
2022-11-15T14:18:02.186Z,2.95
2022-11-15T14:20:29.483Z,3.05
2022-11-15T14:23:01.505Z,2.55
2022-11-15T14:25:30.666Z,3.03
2022-11-15T14:28:30.894Z,3.53
2022-11-15T14:30:59.370Z,3.20
2022-11-15T14:33:34.942Z,3.70
2022-11-15T14:36:19.501Z,3.25
2022-11-15T14:38:46.805Z,2.47
2022-11-15T14:41:25.054Z,4.20
2022-11-15T14:43:52.774Z,2.60
2022-11-15T14:46:19.919Z,2.95
2022-11-15T14:48:46.652Z,3.25
2022-11-15T14:51:20.218Z,3.97
2022-11-15T14:53:47.595Z,3.25
2022-11-15T14:56:15.122Z,3.97
2022-11-15T14:58:41.940Z,2.95
2022-11-15T15:01:20.338Z,2.47
2022-11-15T15:03:47.006Z,3.15
2022-11-15T15:06:18.018Z,3.33
2022-11-15T15:08:46.120Z,3.58
2022-11-15T15:11:29.040Z,2.40
2022-11-15T15:13:58.070Z,2.28
2022-11-15T15:16:25.321Z,3.38
2022-11-15T15:18:52.257Z,3.42
2022-11-15T15:21:23.455Z,2.92
2022-11-15T15:23:50.219Z,3.20
2022-11-15T15:26:17.069Z,3.33
2022-11-15T15:28:43.905Z,3.08
2022-11-15T15:31:11.603Z,3.83
2022-11-15T15:33:38.637Z,1.80
2022-11-15T15:36:05.814Z,2.40
2022-11-15T15:38:32.631Z,3.40
2022-11-15T15:41:00.642Z,2.05
2022-11-15T15:43:27.256Z,2.35
2022-11-15T15:45:53.865Z,2.38
2022-11-15T15:48:20.524Z,3.72
2022-11-15T15:50:48.349Z,2.90
2022-11-15T15:53:15.023Z,2.45
2022-11-15T15:55:41.771Z,4.45
2022-11-15T15:58:09.339Z,3.75
2022-11-15T16:00:37.806Z,3.90
2022-11-15T16:03:04.933Z,5.07
2022-11-15T16:05:31.528Z,4.18
2022-11-15T16:07:58.150Z,3.05
2022-11-15T16:10:30.521Z,4.90
2022-11-15T16:12:58.379Z,3.83
2022-11-15T16:15:30.106Z,3.10
2022-11-15T16:17:58.723Z,3.45
2022-11-15T16:20:40.397Z,2.53
2022-11-15T16:23:09.992Z,3.78
2022-11-15T16:25:41.893Z,3.17
2022-11-15T16:28:18.917Z,2.88
2022-11-15T16:30:45.651Z,3.60
2022-11-15T16:33:12.329Z,3.67
2022-11-15T16:35:38.973Z,3.95
2022-11-15T16:38:05.540Z,4.78
2022-11-15T16:40:34.494Z,4.25
2022-11-15T16:43:03.031Z,3.17
2022-11-15T16:45:30.002Z,4.40
2022-11-15T16:47:57.504Z,4.13
2022-11-15T16:50:30.032Z,3.42
2022-11-15T16:52:58.988Z,5.00
2022-11-15T16:55:28.631Z,2.80
2022-11-15T16:57:58.163Z,4.43
2022-11-15T17:00:28.466Z,3.15
2022-11-15T17:02:56.165Z,4.97
2022-11-15T17:05:24.478Z,4.15
2022-11-15T17:07:55.378Z,4.20
2022-11-15T17:10:23.535Z,5.03
2022-11-15T17:12:56.062Z,6.15
2022-11-15T17:15:30.464Z,5.22
2022-11-15T17:17:57.098Z,4.20
2022-11-15T17:20:25.019Z,5.35
2022-11-15T17:22:52.846Z,4.22
2022-11-15T17:25:19.938Z,4.72
2022-11-15T17:27:46.585Z,4.22
2022-11-15T17:30:15.586Z,3.75
2022-11-15T17:32:43.282Z,5.00
2022-11-15T17:35:15.563Z,4.68
2022-11-15T17:37:43.348Z,3.92
2022-11-15T17:40:10.537Z,2.58
2022-11-15T17:42:37.130Z,4.57
2022-11-15T17:45:09.370Z,4.07
2022-11-15T17:47:37.291Z,5.40
2022-11-15T17:50:06.481Z,4.70
2022-11-15T17:52:33.250Z,4.38
2022-11-15T17:54:59.944Z,3.28
2022-11-15T17:57:26.541Z,5.05
2022-11-15T17:59:53.490Z,4.63
2022-11-15T18:02:20.159Z,5.93
2022-11-15T18:04:46.695Z,3.08
2022-11-15T18:07:14.275Z,5.32
2022-11-15T18:09:43.997Z,5.00
2022-11-15T18:12:11.701Z,3.55
2022-11-15T18:14:38.522Z,6.80
2022-11-15T18:17:05.236Z,5.20
2022-11-15T18:19:31.829Z,6.40
2022-11-15T18:22:01.803Z,4.20
2022-11-15T18:24:30.882Z,5.68
2022-11-15T18:26:58.594Z,3.50
2022-11-15T18:29:25.440Z,7.70
2022-11-15T18:31:55.874Z,5.60
2022-11-15T18:34:28.787Z,5.53
2022-11-15T18:36:55.507Z,5.35
2022-11-15T18:39:22.033Z,8.60
2022-11-15T18:41:49.096Z,5.80
2022-11-15T18:44:16.150Z,5.07
2022-11-15T18:46:45.013Z,5.30
2022-11-15T18:49:13.665Z,5.07
2022-11-15T18:51:43.358Z,7.53
2022-11-15T18:54:12.204Z,6.45
2022-11-15T18:56:39.158Z,4.55
2022-11-15T18:59:06.361Z,6.20
2022-11-15T19:01:35.525Z,5.45
2022-11-15T19:04:10.523Z,6.25
2022-11-15T19:06:39.648Z,6.97
2022-11-15T19:09:07.411Z,4.10
2022-11-15T19:11:37.772Z,5.55
2022-11-15T19:14:09.133Z,7.60
2022-11-15T19:16:44.596Z,5.22
2022-11-15T19:19:17.380Z,5.00
2022-11-15T19:21:44.237Z,7.60
2022-11-15T19:24:11.177Z,7.97
2022-11-15T19:26:38.180Z,7.35
2022-11-15T19:29:06.739Z,6.45
2022-11-15T19:31:34.063Z,6.47
2022-11-15T19:34:03.045Z,6.40
2022-11-15T19:36:34.925Z,3.78
2022-11-15T19:39:05.674Z,7.65
2022-11-15T19:41:32.539Z,7.25
2022-11-15T19:43:59.229Z,4.75
2022-11-15T19:46:26.847Z,6.75
2022-11-15T19:48:54.440Z,8.88
2022-11-15T19:51:26.592Z,7.55
2022-11-15T19:53:55.530Z,7.00
2022-11-15T19:56:22.883Z,9.43
2022-11-15T19:58:54.530Z,7.70
2022-11-15T20:01:24.230Z,7.80
2022-11-15T20:03:54.583Z,5.72
2022-11-15T20:06:26.575Z,8.75
2022-11-15T20:08:53.518Z,5.47
2022-11-15T20:11:20.725Z,7.60
2022-11-15T20:13:47.705Z,5.40
2022-11-15T20:16:21.863Z,5.90
2022-11-15T20:18:53.050Z,6.05
2022-11-15T20:21:20.633Z,5.15
2022-11-15T20:23:47.951Z,7.72
2022-11-15T20:26:15.297Z,7.93
2022-11-15T20:28:42.277Z,5.55
2022-11-15T20:31:10.428Z,6.03
2022-11-15T20:33:37.283Z,5.32
2022-11-15T20:36:06.053Z,5.65
2022-11-15T20:38:32.994Z,5.05
2022-11-15T20:41:00.527Z,8.07
2022-11-15T20:43:27.620Z,5.63
2022-11-15T20:45:54.326Z,3.47
2022-11-15T20:48:21.569Z,6.00
2022-11-15T20:50:48.235Z,5.30
2022-11-15T20:53:17.881Z,4.68
2022-11-15T20:55:49.512Z,5.35
2022-11-15T20:58:17.536Z,6.60
2022-11-15T21:00:45.724Z,3.88
2022-11-15T21:03:14.219Z,6.65
2022-11-15T21:05:43.324Z,7.03
2022-11-15T21:08:11.666Z,3.70
2022-11-15T21:10:57.319Z,6.00
2022-11-15T21:13:23.955Z,6.00
2022-11-15T21:15:50.643Z,6.38
2022-11-15T21:18:17.473Z,4.97
2022-11-15T21:20:44.078Z,5.45
2022-11-15T21:23:12.037Z,6.72
2022-11-15T21:25:38.655Z,5.65
2022-11-15T21:28:05.540Z,5.45
2022-11-15T21:30:32.165Z,6.05
2022-11-15T21:33:01.833Z,7.13
2022-11-15T21:35:28.645Z,6.28
2022-11-15T21:37:57.181Z,6.68
2022-11-15T21:40:24.680Z,5.57
2022-11-15T21:42:51.354Z,7.78
2022-11-15T21:45:17.979Z,5.03
2022-11-15T21:47:46.333Z,7.15
2022-11-15T21:50:13.855Z,4.68
2022-11-15T21:52:40.940Z,3.63
2022-11-15T21:55:08.516Z,4.32
2022-11-15T21:57:35.194Z,3.50
2022-11-15T22:00:23.878Z,2.88
2022-11-15T22:02:50.482Z,2.67
2022-11-15T22:05:17.160Z,3.15
2022-11-15T22:07:43.768Z,2.88
2022-11-15T22:10:10.573Z,3.00
2022-11-15T22:12:37.251Z,3.08
2022-11-15T22:15:06.955Z,3.63
2022-11-15T22:17:52.332Z,2.85
2022-11-15T22:20:43.406Z,2.58
2022-11-15T22:23:07.630Z,3.53
2022-11-15T22:25:34.263Z,3.30
2022-11-15T22:28:00.855Z,2.90
2022-11-15T22:30:27.590Z,3.67
2022-11-15T22:32:54.161Z,3.20
2022-11-15T22:35:23.517Z,3.13
2022-11-15T22:37:50.133Z,2.95
2022-11-15T22:40:17.020Z,3.45
2022-11-15T22:42:43.711Z,3.40
2022-11-15T22:45:10.549Z,3.20
2022-11-15T22:47:38.272Z,3.30
2022-11-15T22:50:06.547Z,3.40
2022-11-15T22:52:33.268Z,3.97
2022-11-15T22:54:59.861Z,3.92
2022-11-15T22:57:26.470Z,3.10
2022-11-15T22:59:53.138Z,3.58
2022-11-15T23:02:19.881Z,4.47
2022-11-15T23:04:46.575Z,3.50
2022-11-15T23:07:13.600Z,3.03
2022-11-15T23:09:40.273Z,3.50
2022-11-15T23:12:27.063Z,3.85
2022-11-15T23:14:53.592Z,4.50
2022-11-15T23:17:20.251Z,5.13
2022-11-15T23:19:47.143Z,4.85
2022-11-15T23:22:32.150Z,5.97
2022-11-15T23:24:59.660Z,5.07
2022-11-15T23:27:26.332Z,4.55
2022-11-15T23:30:11.405Z,5.05
2022-11-15T23:32:56.427Z,3.88
2022-11-15T23:35:23.137Z,4.35
2022-11-15T23:37:50.089Z,3.70
2022-11-15T23:40:16.974Z,3.90
2022-11-15T23:42:43.686Z,4.18
2022-11-15T23:45:10.590Z,3.83
2022-11-15T23:47:37.184Z,4.35
2022-11-15T23:50:04.706Z,4.18
2022-11-15T23:52:31.702Z,3.38
2022-11-15T23:54:58.398Z,3.85
2022-11-15T23:57:24.977Z,3.38
2022-11-15T23:59:54.635Z,3.30
